Grand Haven, Michigan
Current Conditions -  °F | °C
As of 7:55 AM on Sunday 21 Dec 2014 (Local Time) from KMKG Reporting Station
Overcast Overcast  
Wind Chill: 25°   Ceiling: 2300
Heat Index: 33°   Visibility: 7mi
Dew Point: 29°   Wind: 9mph
Humidity: 85%   Direction: 150°SSE
Pressure: 30.23"   Gusts: NA
Location:  43.06°N, 86.22°W
Report Text: KMKG 211255Z 15008KT 7SM FEW014 OVC023 01/M02 A3023 RMK AO2 SLP245 T00061017
Loading
Personal Weather Stations






























Interactive Weather Map New forecast layout! Learn more

10-Day Weather Forecast

Advertisements
Track Severe Weather on mobile